Time,TemperatureF,DewpointF,PressureIn,WindDirection,WindDirectionDegrees,WindSpeedMPH,WindSpeedGustMPH,Humidity,HourlyPrecipIn,Conditions,Clouds,dailyrainin,SoftwareType,DateUTC
2013-03-17 00:00:00,26.1,19.5,30.07,WNW,293,5.4,10.1,76,0.00,,,0.00,VWS V14.01,2013-03-17 04:00:00,
2013-03-17 00:01:00,26.2,19.7,30.07,NW,319,4.0,8.9,76,0.00,,,0.00,VWS V14.01,2013-03-17 04:01:00,
2013-03-17 00:02:00,26.2,19.7,30.07,WNW,298,4.7,8.9,76,0.00,,,0.00,VWS V14.01,2013-03-17 04:02:00,
2013-03-17 00:03:00,26.4,19.9,30.07,WNW,293,4.0,7.8,76,0.00,,,0.00,VWS V14.01,2013-03-17 04:03:00,
2013-03-17 00:08:00,27.0,20.4,30.07,NW,313,0.0,0.0,76,0.00,,,0.00,VWS V14.01,2013-03-17 04:08:00,
2013-03-17 00:13:00,27.1,20.6,30.07,WNW,299,4.7,10.1,76,0.00,,,0.00,VWS V14.01,2013-03-17 04:13:00,
2013-03-17 00:18:00,27.3,20.8,30.07,NW,318,0.0,7.8,76,0.00,,,0.00,VWS V14.01,2013-03-17 04:18:00,
2013-03-17 00:23:00,27.3,20.8,30.07,WNW,303,4.0,6.7,76,0.00,,,0.00,VWS V14.01,2013-03-17 04:23:00,
2013-03-17 00:28:00,27.5,20.9,30.07,NW,313,4.7,7.8,76,0.00,,,0.00,VWS V14.01,2013-03-17 04:28:00,
2013-03-17 00:33:00,27.5,20.6,30.07,NW,307,4.7,8.9,75,0.00,,,0.00,VWS V14.01,2013-03-17 04:33:00,
2013-03-17 00:38:00,27.7,20.8,30.07,NW,315,0.0,6.7,75,0.00,,,0.00,VWS V14.01,2013-03-17 04:38:00,
2013-03-17 00:44:00,27.7,20.8,30.07,NW,316,0.0,6.7,75,0.00,,,0.00,VWS V14.01,2013-03-17 04:44:00,
2013-03-17 00:50:00,27.9,21.0,30.07,WNW,301,4.0,6.7,75,0.00,,,0.00,VWS V14.01,2013-03-17 04:50:00,
2013-03-17 00:55:00,27.9,21.0,30.10,WNW,295,0.0,8.9,75,0.00,,,0.00,VWS V14.01,2013-03-17 04:55:00,
2013-03-17 01:00:00,27.9,21.0,30.10,NW,322,0.0,6.7,75,0.00,,,0.00,VWS V14.01,2013-03-17 05:00:00,
2013-03-17 01:05:00,27.9,20.7,30.10,NW,322,4.0,13.4,74,0.00,,,0.00,VWS V14.01,2013-03-17 05:05:00,
2013-03-17 01:11:00,27.9,20.7,30.10,NW,306,0.0,0.0,74,0.00,,,0.00,VWS V14.01,2013-03-17 05:11:00,
2013-03-17 01:17:00,28.0,20.8,30.10,WNW,301,0.0,0.0,74,0.00,,,0.00,VWS V14.01,2013-03-17 05:17:00,
2013-03-17 01:23:00,28.0,20.8,30.10,NW,315,4.0,6.7,74,0.00,,,0.00,VWS V14.01,2013-03-17 05:23:00,
2013-03-17 01:28:00,28.0,20.8,30.10,NW,323,0.0,6.7,74,0.00,,,0.00,VWS V14.01,2013-03-17 05:28:00,
2013-03-17 01:33:00,28.0,20.8,30.10,NW,321,4.0,7.8,74,0.00,,,0.00,VWS V14.01,2013-03-17 05:33:00,
2013-03-17 01:38:00,28.2,21.0,30.10,NW,321,0.0,0.0,74,0.00,,,0.00,VWS V14.01,2013-03-17 05:38:00,
2013-03-17 01:43:00,28.2,21.0,30.10,NW,318,0.0,0.0,74,0.00,,,0.00,VWS V14.01,2013-03-17 05:43:00,
2013-03-17 01:48:00,28.2,21.0,30.10,NNW,336,0.0,0.0,74,0.00,,,0.00,VWS V14.01,2013-03-17 05:48:00,
2013-03-17 01:53:00,28.2,21.0,30.10,NW,309,0.0,0.0,74,0.00,,,0.00,VWS V14.01,2013-03-17 05:53:00,
2013-03-17 01:58:00,28.2,21.0,30.10,NW,320,3.4,5.6,74,0.00,,,0.00,VWS V14.01,2013-03-17 05:58:00,
2013-03-17 02:03:00,28.2,21.0,30.10,NNW,327,0.0,0.0,74,0.00,,,0.00,VWS V14.01,2013-03-17 06:03:00,
2013-03-17 02:09:00,28.2,21.0,30.10,NNW,331,0.0,0.0,74,0.00,,,0.00,VWS V14.01,2013-03-17 06:09:00,
2013-03-17 02:14:00,28.4,21.2,30.10,NW,312,0.0,0.0,74,0.00,,,0.00,VWS V14.01,2013-03-17 06:14:00,
2013-03-17 02:19:00,28.4,21.2,30.10,NNW,334,4.0,6.7,74,0.00,,,0.00,VWS V14.01,2013-03-17 06:19:00,
2013-03-17 02:24:00,28.4,21.2,30.10,NNW,329,0.0,6.7,74,0.00,,,0.00,VWS V14.01,2013-03-17 06:24:00,
2013-03-17 02:30:00,28.4,21.2,30.10,NNW,327,0.0,6.7,74,0.00,,,0.00,VWS V14.01,2013-03-17 06:30:00,
2013-03-17 02:36:00,28.4,21.2,30.10,NW,326,0.0,0.0,74,0.00,,,0.00,VWS V14.01,2013-03-17 06:36:00,
2013-03-17 02:42:00,28.4,21.2,30.10,NNW,330,0.0,0.0,74,0.00,,,0.00,VWS V14.01,2013-03-17 06:42:00,
2013-03-17 02:47:00,28.4,20.9,30.10,NNW,332,4.0,8.9,73,0.00,,,0.00,VWS V14.01,2013-03-17 06:47:00,
2013-03-17 02:52:00,28.4,20.9,30.10,NNW,330,0.0,0.0,73,0.00,,,0.00,VWS V14.01,2013-03-17 06:52:00,
2013-03-17 02:57:00,28.6,21.0,30.10,NNW,330,0.0,0.0,73,0.00,,,0.00,VWS V14.01,2013-03-17 06:57:00,
2013-03-17 03:02:00,28.6,21.0,30.10,NNW,345,0.0,6.7,73,0.00,,,0.00,VWS V14.01,2013-03-17 07:02:00,
2013-03-17 03:07:00,28.6,21.0,30.10,NNW,346,5.4,8.9,73,0.00,,,0.00,VWS V14.01,2013-03-17 07:07:00,
2013-03-17 03:12:00,28.6,21.0,30.10,NNW,343,4.0,10.1,73,0.00,,,0.00,VWS V14.01,2013-03-17 07:12:00,
2013-03-17 03:17:00,28.6,21.0,30.10,North,353,0.0,0.0,73,0.00,,,0.00,VWS V14.01,2013-03-17 07:17:00,
2013-03-17 03:23:00,28.6,21.0,30.10,North,0,4.0,6.7,73,0.00,,,0.00,VWS V14.01,2013-03-17 07:23:00,
2013-03-17 03:28:00,28.6,21.0,30.10,North,353,0.0,0.0,73,0.00,,,0.00,VWS V14.01,2013-03-17 07:28:00,
2013-03-17 03:33:00,28.6,21.0,30.10,North,0,0.0,0.0,73,0.00,,,0.00,VWS V14.01,2013-03-17 07:33:00,
2013-03-17 03:38:00,28.6,21.0,30.10,North,0,0.0,0.0,73,0.00,,,0.00,VWS V14.01,2013-03-17 07:38:00,
2013-03-17 03:43:00,28.6,21.0,30.10,North,0,0.0,0.0,73,0.00,,,0.00,VWS V14.01,2013-03-17 07:43:00,
2013-03-17 03:48:00,28.6,21.0,30.10,North,0,0.0,0.0,73,0.00,,,0.00,VWS V14.01,2013-03-17 07:48:00,
2013-03-17 03:54:00,28.6,21.0,30.10,NNW,340,0.0,0.0,73,0.00,,,0.00,VWS V14.01,2013-03-17 07:54:00,
2013-03-17 03:59:00,28.6,21.0,30.10,NW,326,0.0,0.0,73,0.00,,,0.00,VWS V14.01,2013-03-17 07:59:00,
2013-03-17 04:04:00,28.8,21.2,30.10,NNW,341,4.0,6.7,73,0.00,,,0.00,VWS V14.01,2013-03-17 08:04:00,
2013-03-17 04:09:00,28.8,21.2,30.10,NNW,331,4.7,8.9,73,0.00,,,0.00,VWS V14.01,2013-03-17 08:09:00,
2013-03-17 04:14:00,28.8,21.2,30.10,NW,321,0.0,6.7,73,0.00,,,0.00,VWS V14.01,2013-03-17 08:14:00,
2013-03-17 04:19:00,28.8,21.2,30.10,NNW,333,4.7,7.8,73,0.00,,,0.00,VWS V14.01,2013-03-17 08:19:00,
2013-03-17 04:25:00,28.8,21.2,30.10,NNW,334,4.0,7.8,73,0.00,,,0.00,VWS V14.01,2013-03-17 08:25:00,
2013-03-17 04:31:00,28.8,21.2,30.10,NNW,339,4.7,7.8,73,0.00,,,0.00,VWS V14.01,2013-03-17 08:31:00,
2013-03-17 04:36:00,28.8,21.2,30.10,NNW,345,0.0,6.7,73,0.00,,,0.00,VWS V14.01,2013-03-17 08:36:00,
2013-03-17 04:41:00,28.9,21.4,30.10,NNW,342,4.0,10.1,73,0.00,,,0.00,VWS V14.01,2013-03-17 08:41:00,
2013-03-17 04:46:00,28.9,21.1,30.10,NW,319,4.0,8.9,72,0.00,,,0.00,VWS V14.01,2013-03-17 08:46:00,
2013-03-17 04:51:00,28.9,21.1,30.10,NW,322,6.0,12.3,72,0.00,,,0.00,VWS V14.01,2013-03-17 08:51:00,
2013-03-17 04:56:00,28.9,21.1,30.10,NNW,348,5.4,8.9,72,0.00,,,0.00,VWS V14.01,2013-03-17 08:56:00,
2013-03-17 05:02:00,28.9,20.7,30.10,NNW,346,4.0,10.1,71,0.00,,,0.00,VWS V14.01,2013-03-17 09:02:00,
2013-03-17 05:07:00,28.9,20.7,30.10,NNW,330,0.0,12.3,71,0.00,,,0.00,VWS V14.01,2013-03-17 09:07:00,
2013-03-17 05:13:00,28.9,20.7,30.10,NNW,333,5.4,8.9,71,0.00,,,0.00,VWS V14.01,2013-03-17 09:13:00,
2013-03-17 05:18:00,28.8,20.2,30.10,NNW,338,9.4,15.7,70,0.00,,,0.00,VWS V14.01,2013-03-17 09:18:00,
2013-03-17 05:23:00,28.8,20.2,30.10,NW,326,6.0,10.1,70,0.00,,,0.00,VWS V14.01,2013-03-17 09:23:00,
2013-03-17 05:28:00,28.6,19.4,30.10,North,5,8.1,15.7,68,0.00,,,0.00,VWS V14.01,2013-03-17 09:28:00,
2013-03-17 05:34:00,28.6,19.4,30.10,NNW,346,7.4,17.9,68,0.00,,,0.00,VWS V14.01,2013-03-17 09:34:00,
2013-03-17 05:40:00,28.4,18.9,30.10,NNW,344,8.1,20.7,67,0.00,,,0.00,VWS V14.01,2013-03-17 09:40:00,
2013-03-17 05:45:00,28.2,18.7,30.10,North,357,9.4,19.0,67,0.00,,,0.00,VWS V14.01,2013-03-17 09:45:00,
2013-03-17 05:50:00,28.2,18.7,30.10,NNW,344,8.7,15.7,67,0.00,,,0.00,VWS V14.01,2013-03-17 09:50:00,
2013-03-17 05:56:00,28.0,18.5,30.10,NNW,346,5.4,12.3,67,0.00,,,0.00,VWS V14.01,2013-03-17 09:56:00,
2013-03-17 06:01:00,28.0,17.5,30.10,North,357,5.4,14.5,64,0.00,,,0.00,VWS V14.01,2013-03-17 10:01:00,
2013-03-17 06:06:00,27.9,16.5,30.10,North,5,8.1,14.5,62,0.00,,,0.00,VWS V14.01,2013-03-17 10:06:00,
2013-03-17 06:11:00,27.9,16.9,30.13,North,0,5.4,10.1,63,0.00,,,0.00,VWS V14.01,2013-03-17 10:11:00,
2013-03-17 06:16:00,27.9,16.9,30.13,North,0,5.4,12.3,63,0.00,,,0.00,VWS V14.01,2013-03-17 10:16:00,
2013-03-17 06:21:00,27.9,15.4,30.13,North,353,8.1,16.8,59,0.00,,,0.00,VWS V14.01,2013-03-17 10:21:00,
2013-03-17 06:26:00,27.7,15.6,30.13,North,7,4.7,10.1,60,0.00,,,0.00,VWS V14.01,2013-03-17 10:26:00,
2013-03-17 06:31:00,27.5,15.1,30.13,North,10,7.4,12.3,59,0.00,,,0.00,VWS V14.01,2013-03-17 10:31:00,
2013-03-17 06:36:00,27.3,14.1,30.13,North,353,4.7,10.1,57,0.00,,,0.00,VWS V14.01,2013-03-17 10:36:00,
2013-03-17 06:41:00,27.3,14.1,30.13,NNE,16,4.7,12.3,57,0.00,,,0.00,VWS V14.01,2013-03-17 10:41:00,
2013-03-17 06:46:00,27.1,13.9,30.13,North,11,4.7,7.8,57,0.00,,,0.00,VWS V14.01,2013-03-17 10:46:00,
2013-03-17 06:51:00,27.0,14.2,30.13,North,3,4.7,8.9,58,0.00,,,0.00,VWS V14.01,2013-03-17 10:51:00,
2013-03-17 06:56:00,26.6,14.2,30.13,North,4,4.7,8.9,59,0.00,,,0.00,VWS V14.01,2013-03-17 10:56:00,
2013-03-17 07:01:00,26.8,14.0,30.13,North,5,4.7,8.9,58,0.00,,,0.00,VWS V14.01,2013-03-17 11:01:00,
2013-03-17 07:06:00,26.8,13.6,30.13,North,11,3.4,6.7,57,0.00,,,0.00,VWS V14.01,2013-03-17 11:06:00,
2013-03-17 07:11:00,26.8,14.0,30.16,NNE,19,4.0,10.1,58,0.00,,,0.00,VWS V14.01,2013-03-17 11:11:00,
2013-03-17 07:16:00,26.6,13.8,30.16,NNE,15,4.0,8.9,58,0.00,,,0.00,VWS V14.01,2013-03-17 11:16:00,
2013-03-17 07:21:00,26.4,13.7,30.16,North,353,4.0,15.7,58,0.00,,,0.00,VWS V14.01,2013-03-17 11:21:00,
2013-03-17 07:26:00,26.2,13.5,30.16,NNE,29,8.1,14.5,58,0.00,,,0.00,VWS V14.01,2013-03-17 11:26:00,
2013-03-17 07:31:00,26.1,13.3,30.16,NNE,18,4.7,10.1,58,0.00,,,0.00,VWS V14.01,2013-03-17 11:31:00,
2013-03-17 07:36:00,26.1,13.3,30.16,NNE,29,8.1,16.8,58,0.00,,,0.00,VWS V14.01,2013-03-17 11:36:00,
2013-03-17 07:41:00,25.9,13.5,30.16,NNE,26,8.1,13.4,59,0.00,,,0.00,VWS V14.01,2013-03-17 11:41:00,
2013-03-17 07:46:00,25.7,13.4,30.16,NNE,33,6.0,11.2,59,0.00,,,0.00,VWS V14.01,2013-03-17 11:46:00,
2013-03-17 07:51:00,25.7,13.4,30.16,NNE,28,8.1,13.4,59,0.00,,,0.00,VWS V14.01,2013-03-17 11:51:00,
2013-03-17 07:56:00,25.7,13.4,30.16,NE,40,7.4,13.4,59,0.00,,,0.00,VWS V14.01,2013-03-17 11:56:00,
2013-03-17 08:01:00,25.7,13.4,30.16,NE,39,7.4,13.4,59,0.00,,,0.00,VWS V14.01,2013-03-17 12:01:00,
2013-03-17 08:06:00,25.9,13.5,30.16,NE,34,8.1,14.5,59,0.00,,,0.00,VWS V14.01,2013-03-17 12:06:00,
2013-03-17 08:12:00,25.9,13.1,30.19,NNE,24,11.4,19.0,58,0.00,,,0.00,VWS V14.01,2013-03-17 12:12:00,
2013-03-17 08:17:00,26.1,13.3,30.19,NE,38,9.4,15.7,58,0.00,,,0.00,VWS V14.01,2013-03-17 12:17:00,
2013-03-17 08:22:00,26.1,13.3,30.19,NE,45,5.4,12.3,58,0.00,,,0.00,VWS V14.01,2013-03-17 12:22:00,
2013-03-17 08:27:00,25.9,13.1,30.19,NE,36,11.4,19.0,58,0.00,,,0.00,VWS V14.01,2013-03-17 12:27:00,
2013-03-17 08:32:00,26.1,13.3,30.19,NE,34,7.4,12.3,58,0.00,,,0.00,VWS V14.01,2013-03-17 12:32:00,
2013-03-17 08:37:00,26.1,13.7,30.19,NE,38,4.7,12.3,59,0.00,,,0.00,VWS V14.01,2013-03-17 12:37:00,
2013-03-17 08:42:00,26.1,13.3,30.19,NNE,33,8.7,14.5,58,0.00,,,0.00,VWS V14.01,2013-03-17 12:42:00,
2013-03-17 08:47:00,26.2,13.5,30.19,NE,34,5.4,12.3,58,0.00,,,0.00,VWS V14.01,2013-03-17 12:47:00,
2013-03-17 08:52:00,26.4,13.7,30.19,NE,43,4.7,10.1,58,0.00,,,0.00,VWS V14.01,2013-03-17 12:52:00,
2013-03-17 08:57:00,26.6,13.8,30.22,NE,42,4.0,7.8,58,0.00,,,0.00,VWS V14.01,2013-03-17 12:57:00,
2013-03-17 09:03:00,26.8,14.0,30.22,ENE,74,4.7,7.8,58,0.00,,,0.00,VWS V14.01,2013-03-17 13:03:00,
2013-03-17 09:08:00,27.0,14.2,30.22,ENE,63,4.7,7.8,58,0.00,,,0.00,VWS V14.01,2013-03-17 13:08:00,
2013-03-17 09:13:00,27.1,14.3,30.22,NNE,27,5.4,14.5,58,0.00,,,0.00,VWS V14.01,2013-03-17 13:13:00,
2013-03-17 09:18:00,27.0,13.4,30.22,NNE,25,13.1,21.8,56,0.00,,,0.00,VWS V14.01,2013-03-17 13:18:00,
2013-03-17 09:23:00,27.1,13.5,30.22,NE,47,6.0,10.1,56,0.00,,,0.00,VWS V14.01,2013-03-17 13:23:00,
2013-03-17 09:28:00,27.5,13.9,30.22,ENE,72,4.7,20.1,56,0.00,,,0.00,VWS V14.01,2013-03-17 13:28:00,
2013-03-17 09:33:00,28.0,14.4,30.22,ENE,69,6.0,14.5,56,0.00,,,0.00,VWS V14.01,2013-03-17 13:33:00,
2013-03-17 09:38:00,28.2,14.1,30.22,NE,48,5.4,12.3,55,0.00,,,0.00,VWS V14.01,2013-03-17 13:38:00,
2013-03-17 09:43:00,28.2,13.7,30.22,ENE,58,5.4,14.5,54,0.00,,,0.00,VWS V14.01,2013-03-17 13:43:00,
2013-03-17 09:48:00,28.8,13.8,30.22,NNE,32,5.4,14.5,53,0.00,,,0.00,VWS V14.01,2013-03-17 13:48:00,
2013-03-17 09:53:00,28.6,12.8,30.22,NE,36,6.0,15.7,51,0.00,,,0.00,VWS V14.01,2013-03-17 13:53:00,
2013-03-17 09:58:00,28.6,12.8,30.22,NE,47,9.4,20.7,51,0.00,,,0.00,VWS V14.01,2013-03-17 13:58:00,
2013-03-17 10:03:00,28.8,12.9,30.22,NE,47,7.4,20.1,51,0.00,,,0.00,VWS V14.01,2013-03-17 14:03:00,
2013-03-17 10:08:00,28.6,13.2,30.22,NE,34,9.4,20.7,52,0.00,,,0.00,VWS V14.01,2013-03-17 14:08:00,
2013-03-17 10:13:00,28.6,13.6,30.22,NE,47,5.4,10.1,53,0.00,,,0.00,VWS V14.01,2013-03-17 14:13:00,
2013-03-17 10:18:00,28.6,14.1,30.22,East,84,8.7,20.7,54,0.00,,,0.00,VWS V14.01,2013-03-17 14:18:00,
2013-03-17 10:23:00,27.9,13.4,30.22,NE,54,8.1,20.7,54,0.00,,,0.00,VWS V14.01,2013-03-17 14:23:00,
2013-03-17 10:28:00,27.5,12.6,30.22,NNE,23,11.4,20.1,53,0.00,,,0.00,VWS V14.01,2013-03-17 14:28:00,
2013-03-17 10:33:00,27.5,12.6,30.22,NE,52,6.7,14.5,53,0.00,,,0.00,VWS V14.01,2013-03-17 14:33:00,
2013-03-17 10:38:00,27.9,13.4,30.22,NE,52,6.0,12.3,54,0.00,,,0.00,VWS V14.01,2013-03-17 14:38:00,
2013-03-17 10:43:00,28.2,14.1,30.22,ENE,72,8.1,15.7,55,0.00,,,0.00,VWS V14.01,2013-03-17 14:43:00,
2013-03-17 10:48:00,28.4,13.9,30.22,ENE,72,7.4,13.4,54,0.00,,,0.00,VWS V14.01,2013-03-17 14:48:00,
2013-03-17 10:53:00,28.6,13.6,30.22,ENE,67,6.0,15.7,53,0.00,,,0.00,VWS V14.01,2013-03-17 14:53:00,
2013-03-17 10:58:00,28.9,14.0,30.22,NNE,30,6.0,13.4,53,0.00,,,0.00,VWS V14.01,2013-03-17 14:58:00,
2013-03-17 11:03:00,29.1,14.1,30.22,East,87,8.1,15.7,53,0.00,,,0.00,VWS V14.01,2013-03-17 15:03:00,
2013-03-17 11:08:00,29.3,14.3,30.22,ENE,78,7.4,13.4,53,0.00,,,0.00,VWS V14.01,2013-03-17 15:08:00,
2013-03-17 11:13:00,29.7,14.2,30.22,NE,50,5.4,10.1,52,0.00,,,0.00,VWS V14.01,2013-03-17 15:13:00,
2013-03-17 11:18:00,30.2,15.1,30.22,ESE,103,4.7,10.1,53,0.00,,,0.00,VWS V14.01,2013-03-17 15:18:00,
2013-03-17 11:23:00,30.0,14.5,30.22,East,82,6.0,10.1,52,0.00,,,0.00,VWS V14.01,2013-03-17 15:23:00,
2013-03-17 11:28:00,30.0,14.1,30.22,ENE,71,6.7,11.2,51,0.00,,,0.00,VWS V14.01,2013-03-17 15:28:00,
2013-03-17 11:33:00,30.2,14.3,30.22,ENE,70,8.7,15.7,51,0.00,,,0.00,VWS V14.01,2013-03-17 15:33:00,
2013-03-17 11:39:00,30.2,13.8,30.22,ENE,73,5.4,10.1,50,0.00,,,0.00,VWS V14.01,2013-03-17 15:39:00,
2013-03-17 11:44:00,30.2,13.4,30.22,NE,56,6.0,13.4,49,0.00,,,0.00,VWS V14.01,2013-03-17 15:44:00,
2013-03-17 11:50:00,30.9,14.0,30.22,NE,39,4.7,12.3,49,0.00,,,0.00,VWS V14.01,2013-03-17 15:50:00,
2013-03-17 11:55:00,31.5,14.5,30.22,ENE,69,4.0,10.1,49,0.00,,,0.00,VWS V14.01,2013-03-17 15:55:00,
2013-03-17 12:01:00,31.6,14.2,30.22,ENE,58,6.0,10.1,48,0.00,,,0.00,VWS V14.01,2013-03-17 16:01:00,
2013-03-17 12:06:00,31.5,13.6,30.22,ENE,61,8.1,20.1,47,0.00,,,0.00,VWS V14.01,2013-03-17 16:06:00,
2013-03-17 12:12:00,31.3,12.9,30.22,ENE,70,7.4,12.3,46,0.00,,,0.00,VWS V14.01,2013-03-17 16:12:00,
2013-03-17 12:17:00,31.6,12.8,30.22,NNE,25,8.7,14.5,45,0.00,,,0.00,VWS V14.01,2013-03-17 16:17:00,
2013-03-17 12:23:00,32.2,13.7,30.22,ENE,72,8.7,14.5,46,0.00,,,0.00,VWS V14.01,2013-03-17 16:23:00,
2013-03-17 12:28:00,32.2,13.7,30.22,ENE,64,5.4,10.1,46,0.00,,,0.00,VWS V14.01,2013-03-17 16:28:00,
2013-03-17 12:33:00,31.5,12.6,30.22,NNE,25,5.4,13.4,45,0.00,,,0.00,VWS V14.01,2013-03-17 16:33:00,
2013-03-17 12:39:00,31.8,12.9,30.22,ENE,63,6.0,15.7,45,0.00,,,0.00,VWS V14.01,2013-03-17 16:39:00,
2013-03-17 12:44:00,33.1,14.6,30.22,ENE,63,8.1,14.5,46,0.00,,,0.00,VWS V14.01,2013-03-17 16:44:00,
2013-03-17 12:49:00,33.6,14.6,30.22,ENE,70,5.4,15.7,45,0.00,,,0.00,VWS V14.01,2013-03-17 16:49:00,
2013-03-17 12:54:00,35.8,16.5,30.22,ESE,106,8.1,13.4,45,0.00,,,0.00,VWS V14.01,2013-03-17 16:54:00,
2013-03-17 12:59:00,33.8,13.7,30.22,ENE,68,7.4,20.1,43,0.00,,,0.00,VWS V14.01,2013-03-17 16:59:00,
2013-03-17 13:04:00,34.3,14.2,30.22,East,95,6.0,12.3,43,0.00,,,0.00,VWS V14.01,2013-03-17 17:04:00,
2013-03-17 13:09:00,34.2,13.5,30.22,NNE,33,8.1,14.5,42,0.00,,,0.00,VWS V14.01,2013-03-17 17:09:00,
2013-03-17 13:14:00,34.5,14.3,30.22,ENE,60,6.0,14.5,43,0.00,,,0.00,VWS V14.01,2013-03-17 17:14:00,
2013-03-17 13:19:00,34.9,14.1,30.22,ESE,117,5.4,13.4,42,0.00,,,0.00,VWS V14.01,2013-03-17 17:19:00,
2013-03-17 13:24:00,35.6,15.3,30.22,ENE,74,5.4,15.7,43,0.00,,,0.00,VWS V14.01,2013-03-17 17:24:00,
2013-03-17 13:29:00,34.3,13.6,30.22,ENE,57,6.0,13.4,42,0.00,,,0.00,VWS V14.01,2013-03-17 17:29:00,
2013-03-17 13:34:00,35.4,14.6,30.22,East,80,6.0,10.1,42,0.00,,,0.00,VWS V14.01,2013-03-17 17:34:00,
2013-03-17 13:39:00,35.8,14.4,30.22,ESE,109,4.7,12.3,41,0.00,,,0.00,VWS V14.01,2013-03-17 17:39:00,
2013-03-17 13:44:00,37.2,16.8,30.22,ESE,111,8.1,14.5,43,0.00,,,0.00,VWS V14.01,2013-03-17 17:44:00,
2013-03-17 13:50:00,34.3,13.1,30.22,East,97,4.7,13.4,41,0.00,,,0.00,VWS V14.01,2013-03-17 17:50:00,
2013-03-17 13:56:00,34.7,12.9,30.22,ESE,113,4.7,12.3,40,0.00,,,0.00,VWS V14.01,2013-03-17 17:56:00,
2013-03-17 14:02:00,34.3,13.1,30.22,ESE,110,6.0,15.7,41,0.00,,,0.00,VWS V14.01,2013-03-17 18:02:00,
2013-03-17 14:07:00,36.5,15.6,30.22,SE,126,6.0,10.1,42,0.00,,,0.00,VWS V14.01,2013-03-17 18:07:00,
2013-03-17 14:12:00,38.7,17.6,30.22,East,81,6.0,14.5,42,0.00,,,0.00,VWS V14.01,2013-03-17 18:12:00,
2013-03-17 14:17:00,37.8,16.2,30.22,ESE,115,6.0,13.4,41,0.00,,,0.00,VWS V14.01,2013-03-17 18:17:00,
2013-03-17 14:22:00,35.2,13.9,30.22,ESE,116,4.7,20.7,41,0.00,,,0.00,VWS V14.01,2013-03-17 18:22:00,
2013-03-17 14:27:00,37.2,15.7,30.22,ENE,64,6.7,11.2,41,0.00,,,0.00,VWS V14.01,2013-03-17 18:27:00,
2013-03-17 14:32:00,38.7,17.0,30.22,SSE,156,5.4,15.7,41,0.00,,,0.00,VWS V14.01,2013-03-17 18:32:00,
2013-03-17 14:37:00,40.3,18.5,30.22,ESE,111,6.0,10.1,41,0.00,,,0.00,VWS V14.01,2013-03-17 18:37:00,
2013-03-17 14:42:00,39.0,16.8,30.19,NE,55,7.4,12.3,40,0.00,,,0.00,VWS V14.01,2013-03-17 18:42:00,
2013-03-17 14:48:00,39.9,17.6,30.19,ESE,117,9.4,15.7,40,0.00,,,0.00,VWS V14.01,2013-03-17 18:48:00,
2013-03-17 14:53:00,39.4,16.5,30.19,ESE,114,6.0,11.2,39,0.00,,,0.00,VWS V14.01,2013-03-17 18:53:00,
2013-03-17 14:59:00,39.2,16.3,30.19,NNE,26,7.4,13.4,39,0.00,,,0.00,VWS V14.01,2013-03-17 18:59:00,
2013-03-17 15:04:00,39.6,16.7,30.19,ENE,70,4.7,13.4,39,0.00,,,0.00,VWS V14.01,2013-03-17 19:04:00,
2013-03-17 15:10:00,40.5,18.1,30.19,East,93,7.4,12.3,40,0.00,,,0.00,VWS V14.01,2013-03-17 19:10:00,
2013-03-17 15:15:00,40.6,17.6,30.19,ESE,114,4.7,12.3,39,0.00,,,0.00,VWS V14.01,2013-03-17 19:15:00,
2013-03-17 15:20:00,40.5,18.1,30.19,East,96,6.0,14.5,40,0.00,,,0.00,VWS V14.01,2013-03-17 19:20:00,
2013-03-17 15:26:00,40.1,17.1,30.19,NE,56,6.0,15.7,39,0.00,,,0.00,VWS V14.01,2013-03-17 19:26:00,
2013-03-17 15:31:00,40.5,18.1,30.19,SE,135,5.4,12.3,40,0.00,,,0.00,VWS V14.01,2013-03-17 19:31:00,
2013-03-17 15:37:00,39.6,16.7,30.19,ENE,65,4.7,10.1,39,0.00,,,0.00,VWS V14.01,2013-03-17 19:37:00,
2013-03-17 15:42:00,39.6,16.7,30.16,ENE,59,8.1,13.4,39,0.00,,,0.00,VWS V14.01,2013-03-17 19:42:00,
2013-03-17 15:47:00,37.6,14.9,30.16,NNE,16,4.7,14.5,39,0.00,,,0.00,VWS V14.01,2013-03-17 19:47:00,
2013-03-17 15:53:00,36.1,14.2,30.16,East,87,6.0,15.7,40,0.00,,,0.00,VWS V14.01,2013-03-17 19:53:00,
2013-03-17 15:58:00,37.0,15.5,30.16,East,81,7.4,20.1,41,0.00,,,0.00,VWS V14.01,2013-03-17 19:58:00,
2013-03-17 16:03:00,36.3,14.3,30.16,East,84,5.4,14.5,40,0.00,,,0.00,VWS V14.01,2013-03-17 20:03:00,
2013-03-17 16:09:00,36.1,14.2,30.16,ESE,115,8.7,14.5,40,0.00,,,0.00,VWS V14.01,2013-03-17 20:09:00,
2013-03-17 16:14:00,36.9,15.4,30.16,East,85,6.0,13.4,41,0.00,,,0.00,VWS V14.01,2013-03-17 20:14:00,
2013-03-17 16:20:00,37.0,15.5,30.16,SE,124,8.1,15.7,41,0.00,,,0.00,VWS V14.01,2013-03-17 20:20:00,
2013-03-17 16:25:00,37.4,15.9,30.16,SE,141,7.4,13.4,41,0.00,,,0.00,VWS V14.01,2013-03-17 20:25:00,
2013-03-17 16:30:00,37.0,15.5,30.16,East,98,6.7,19.0,41,0.00,,,0.00,VWS V14.01,2013-03-17 20:30:00,
2013-03-17 16:35:00,36.7,15.2,30.16,ESE,111,9.4,16.8,41,0.00,,,0.00,VWS V14.01,2013-03-17 20:35:00,
2013-03-17 16:41:00,36.3,14.9,30.16,ESE,105,8.7,16.8,41,0.00,,,0.00,VWS V14.01,2013-03-17 20:41:00,
2013-03-17 16:47:00,36.3,14.9,30.16,ESE,115,7.4,21.8,41,0.00,,,0.00,VWS V14.01,2013-03-17 20:47:00,
2013-03-17 16:53:00,36.5,15.1,30.16,SE,124,9.4,15.7,41,0.00,,,0.00,VWS V14.01,2013-03-17 20:53:00,
2013-03-17 16:59:00,36.5,15.1,30.13,ESE,111,8.1,15.7,41,0.00,,,0.00,VWS V14.01,2013-03-17 20:59:00,
2013-03-17 17:05:00,35.6,14.2,30.13,East,88,4.0,19.0,41,0.00,,,0.00,VWS V14.01,2013-03-17 21:05:00,
2013-03-17 17:10:00,36.1,15.3,30.13,SSE,150,7.4,12.3,42,0.00,,,0.00,VWS V14.01,2013-03-17 21:10:00,
2013-03-17 17:16:00,35.6,14.2,30.13,ESE,109,8.7,19.0,41,0.00,,,0.00,VWS V14.01,2013-03-17 21:16:00,
2013-03-17 17:22:00,35.4,14.1,30.13,ENE,77,6.0,15.7,41,0.00,,,0.00,VWS V14.01,2013-03-17 21:22:00,
2013-03-17 17:28:00,34.9,13.6,30.13,East,94,7.4,14.5,41,0.00,,,0.00,VWS V14.01,2013-03-17 21:28:00,
2013-03-17 17:33:00,35.4,14.1,30.13,NE,40,7.4,14.5,41,0.00,,,0.00,VWS V14.01,2013-03-17 21:33:00,
2013-03-17 17:38:00,35.2,13.9,30.13,NE,53,5.4,12.3,41,0.00,,,0.00,VWS V14.01,2013-03-17 21:38:00,
2013-03-17 17:43:00,35.6,14.2,30.13,SE,129,7.4,19.0,41,0.00,,,0.00,VWS V14.01,2013-03-17 21:43:00,
2013-03-17 17:48:00,35.4,14.6,30.13,SE,140,8.1,14.5,42,0.00,,,0.00,VWS V14.01,2013-03-17 21:48:00,
2013-03-17 17:54:00,35.4,14.1,30.13,ESE,114,4.7,13.4,41,0.00,,,0.00,VWS V14.01,2013-03-17 21:54:00,
2013-03-17 17:59:00,34.9,13.6,30.13,ENE,78,7.4,20.7,41,0.00,,,0.00,VWS V14.01,2013-03-17 21:59:00,
2013-03-17 18:05:00,34.7,13.4,30.13,ESE,106,7.4,13.4,41,0.00,,,0.00,VWS V14.01,2013-03-17 22:05:00,
2013-03-17 18:10:00,35.4,14.6,30.13,East,92,11.4,19.0,42,0.00,,,0.00,VWS V14.01,2013-03-17 22:10:00,
2013-03-17 18:16:00,34.9,13.6,30.13,ESE,110,6.0,13.4,41,0.00,,,0.00,VWS V14.01,2013-03-17 22:16:00,
2013-03-17 18:21:00,34.7,14.0,30.13,ENE,76,6.0,14.5,42,0.00,,,0.00,VWS V14.01,2013-03-17 22:21:00,
2013-03-17 18:27:00,34.2,12.9,30.13,ENE,68,5.4,15.7,41,0.00,,,0.00,VWS V14.01,2013-03-17 22:27:00,
2013-03-17 18:32:00,33.8,12.6,30.13,East,86,4.0,10.1,41,0.00,,,0.00,VWS V14.01,2013-03-17 22:32:00,
2013-03-17 18:37:00,33.8,13.1,30.13,ESE,104,5.4,10.1,42,0.00,,,0.00,VWS V14.01,2013-03-17 22:37:00,
2013-03-17 18:43:00,33.8,13.1,30.13,ENE,72,6.0,10.1,42,0.00,,,0.00,VWS V14.01,2013-03-17 22:43:00,
2013-03-17 18:48:00,33.6,13.5,30.13,East,97,8.1,13.4,43,0.00,,,0.00,VWS V14.01,2013-03-17 22:48:00,
2013-03-17 18:54:00,33.1,13.0,30.13,ENE,64,6.0,12.3,43,0.00,,,0.00,VWS V14.01,2013-03-17 22:54:00,
2013-03-17 18:59:00,32.7,12.7,30.13,East,82,5.4,13.4,43,0.00,,,0.00,VWS V14.01,2013-03-17 22:59:00,
2013-03-17 19:05:00,32.7,13.2,30.13,ENE,64,4.7,7.8,44,0.00,,,0.00,VWS V14.01,2013-03-17 23:05:00,
2013-03-17 19:10:00,32.7,13.2,30.13,ESE,105,6.0,10.1,44,0.00,,,0.00,VWS V14.01,2013-03-17 23:10:00,
2013-03-17 19:15:00,32.5,13.1,30.13,East,84,5.4,10.1,44,0.00,,,0.00,VWS V14.01,2013-03-17 23:15:00,
2013-03-17 19:21:00,32.2,12.7,30.13,ESE,115,5.4,10.1,44,0.00,,,0.00,VWS V14.01,2013-03-17 23:21:00,
2013-03-17 19:26:00,31.8,12.4,30.13,East,90,4.7,10.1,44,0.00,,,0.00,VWS V14.01,2013-03-17 23:26:00,
2013-03-17 19:32:00,31.3,12.4,30.13,ENE,73,4.7,10.1,45,0.00,,,0.00,VWS V14.01,2013-03-17 23:32:00,
2013-03-17 19:37:00,31.1,12.8,30.13,ESE,111,7.4,12.3,46,0.00,,,0.00,VWS V14.01,2013-03-17 23:37:00,
2013-03-17 19:42:00,30.7,12.9,30.13,East,95,5.4,8.9,47,0.00,,,0.00,VWS V14.01,2013-03-17 23:42:00,
2013-03-17 19:48:00,30.6,12.7,30.13,East,98,5.4,8.9,47,0.00,,,0.00,VWS V14.01,2013-03-17 23:48:00,
2013-03-17 19:54:00,30.4,12.6,30.13,ESE,104,4.7,8.9,47,0.00,,,0.00,VWS V14.01,2013-03-17 23:54:00,
2013-03-17 20:00:00,30.0,13.2,30.13,ESE,119,6.0,12.3,49,0.00,,,0.00,VWS V14.01,2013-03-18 00:00:00,
2013-03-17 20:06:00,29.8,13.0,30.13,ENE,67,4.0,8.9,49,0.00,,,0.00,VWS V14.01,2013-03-18 00:06:00,
2013-03-17 20:11:00,29.7,13.3,30.16,SE,137,8.1,14.5,50,0.00,,,0.00,VWS V14.01,2013-03-18 00:11:00,
2013-03-17 20:16:00,29.7,12.9,30.16,ESE,121,6.0,13.4,49,0.00,,,0.00,VWS V14.01,2013-03-18 00:16:00,
2013-03-17 20:22:00,29.7,13.3,30.16,SE,128,6.0,15.7,50,0.00,,,0.00,VWS V14.01,2013-03-18 00:22:00,
2013-03-17 20:28:00,29.5,13.1,30.16,ESE,113,4.7,12.3,50,0.00,,,0.00,VWS V14.01,2013-03-18 00:28:00,
2013-03-17 20:33:00,29.3,13.0,30.16,ESE,121,5.4,12.3,50,0.00,,,0.00,VWS V14.01,2013-03-18 00:33:00,
2013-03-17 20:38:00,29.3,13.4,30.16,SE,140,8.1,14.5,51,0.00,,,0.00,VWS V14.01,2013-03-18 00:38:00,
2013-03-17 20:43:00,29.3,13.4,30.13,ESE,108,5.4,13.4,51,0.00,,,0.00,VWS V14.01,2013-03-18 00:43:00,
2013-03-17 20:48:00,29.1,13.3,30.13,ESE,111,6.0,14.5,51,0.00,,,0.00,VWS V14.01,2013-03-18 00:48:00,
2013-03-17 20:54:00,28.9,13.1,30.13,ESE,104,6.0,14.5,51,0.00,,,0.00,VWS V14.01,2013-03-18 00:54:00,
2013-03-17 20:59:00,28.9,13.1,30.13,SE,128,8.7,14.5,51,0.00,,,0.00,VWS V14.01,2013-03-18 00:59:00,
2013-03-17 21:05:00,28.9,13.1,30.13,SE,124,8.1,14.5,51,0.00,,,0.00,VWS V14.01,2013-03-18 01:05:00,
2013-03-17 21:10:00,28.9,13.1,30.13,SE,124,11.4,20.7,51,0.00,,,0.00,VWS V14.01,2013-03-18 01:10:00,
2013-03-17 21:15:00,28.8,12.9,30.13,East,89,8.7,14.5,51,0.00,,,0.00,VWS V14.01,2013-03-18 01:15:00,
2013-03-17 21:20:00,28.6,12.8,30.13,ESE,115,8.7,14.5,51,0.00,,,0.00,VWS V14.01,2013-03-18 01:20:00,
2013-03-17 21:26:00,28.6,12.8,30.13,SSE,153,8.7,14.5,51,0.00,,,0.00,VWS V14.01,2013-03-18 01:26:00,
2013-03-17 21:32:00,28.6,13.2,30.13,ESE,114,9.4,15.7,52,0.00,,,0.00,VWS V14.01,2013-03-18 01:32:00,
2013-03-17 21:38:00,28.6,13.2,30.13,ESE,116,8.1,14.5,52,0.00,,,0.00,VWS V14.01,2013-03-18 01:38:00,
2013-03-17 21:43:00,28.4,13.0,30.13,ESE,102,8.7,16.8,52,0.00,,,0.00,VWS V14.01,2013-03-18 01:43:00,
2013-03-17 21:48:00,28.2,13.3,30.13,ESE,121,6.0,20.7,53,0.00,,,0.00,VWS V14.01,2013-03-18 01:48:00,
2013-03-17 21:53:00,28.0,13.1,30.13,ESE,111,8.7,14.5,53,0.00,,,0.00,VWS V14.01,2013-03-18 01:53:00,
2013-03-17 21:58:00,28.0,13.1,30.13,ESE,102,13.1,21.8,53,0.00,,,0.00,VWS V14.01,2013-03-18 01:58:00,
2013-03-17 22:03:00,27.9,13.0,30.13,ENE,75,11.4,20.7,53,0.00,,,0.00,VWS V14.01,2013-03-18 02:03:00,
2013-03-17 22:09:00,27.9,13.4,30.13,ESE,102,12.4,20.7,54,0.00,,,0.00,VWS V14.01,2013-03-18 02:09:00,
2013-03-17 22:14:00,27.7,13.2,30.13,ESE,116,5.4,8.9,54,0.00,,,0.00,VWS V14.01,2013-03-18 02:14:00,
2013-03-17 22:20:00,27.5,13.1,30.13,ESE,118,9.4,15.7,54,0.00,,,0.00,VWS V14.01,2013-03-18 02:20:00,
2013-03-17 22:26:00,27.3,13.3,30.10,ESE,112,8.1,19.0,55,0.00,,,0.00,VWS V14.01,2013-03-18 02:26:00,
2013-03-17 22:31:00,27.3,13.3,30.10,ESE,109,8.7,15.7,55,0.00,,,0.00,VWS V14.01,2013-03-18 02:31:00,
2013-03-17 22:36:00,27.1,13.1,30.10,ESE,117,11.4,19.0,55,0.00,,,0.00,VWS V14.01,2013-03-18 02:36:00,
2013-03-17 22:41:00,27.0,13.0,30.10,ESE,107,9.4,25.2,55,0.00,,,0.00,VWS V14.01,2013-03-18 02:41:00,
2013-03-17 22:46:00,27.0,13.0,30.10,SSE,152,8.7,15.7,55,0.00,,,0.00,VWS V14.01,2013-03-18 02:46:00,
2013-03-17 22:52:00,27.0,13.0,30.10,ESE,122,8.7,14.5,55,0.00,,,0.00,VWS V14.01,2013-03-18 02:52:00,
2013-03-17 22:58:00,27.0,13.0,30.10,ESE,117,6.0,20.7,55,0.00,,,0.00,VWS V14.01,2013-03-18 02:58:00,
2013-03-17 23:03:00,27.0,13.4,30.10,ESE,116,10.7,17.9,56,0.00,,,0.00,VWS V14.01,2013-03-18 03:03:00,
2013-03-17 23:08:00,27.0,13.4,30.10,East,101,8.7,20.1,56,0.00,,,0.00,VWS V14.01,2013-03-18 03:08:00,
2013-03-17 23:14:00,27.0,13.4,30.10,SE,141,9.4,19.0,56,0.00,,,0.00,VWS V14.01,2013-03-18 03:14:00,
2013-03-17 23:19:00,26.8,13.2,30.10,ESE,109,12.1,20.1,56,0.00,,,0.00,VWS V14.01,2013-03-18 03:19:00,
2013-03-17 23:24:00,26.8,13.2,30.10,ESE,109,8.7,21.8,56,0.00,,,0.00,VWS V14.01,2013-03-18 03:24:00,
2013-03-17 23:29:00,26.8,13.2,30.10,ESE,122,8.7,20.1,56,0.00,,,0.00,VWS V14.01,2013-03-18 03:29:00,
2013-03-17 23:34:00,26.6,13.0,30.10,ESE,117,9.4,15.7,56,0.00,,,0.00,VWS V14.01,2013-03-18 03:34:00,
2013-03-17 23:40:00,26.6,13.4,30.10,East,92,11.4,25.2,57,0.00,,,0.00,VWS V14.01,2013-03-18 03:40:00,
2013-03-17 23:45:00,26.8,13.2,30.10,ESE,111,11.4,24.0,56,0.00,,,0.00,VWS V14.01,2013-03-18 03:45:00,
2013-03-17 23:50:00,26.6,13.4,30.10,East,94,8.1,20.7,57,0.00,,,0.00,VWS V14.01,2013-03-18 03:50:00,
2013-03-17 23:57:00,26.6,13.4,30.07,East,89,8.7,14.5,57,0.00,,,0.00,VWS V14.01,2013-03-18 03:57:00,